createdAt,value
2019-06-26T00:00:18.712Z,19.43
2019-06-26T00:02:47.345Z,19.33
2019-06-26T00:05:16.187Z,19.28
2019-06-26T00:07:46.165Z,19.24
2019-06-26T00:10:14.799Z,19.15
2019-06-26T00:12:43.762Z,19.18
2019-06-26T00:15:12.818Z,19.22
2019-06-26T00:17:41.554Z,19.25
2019-06-26T00:20:10.295Z,19.25
2019-06-26T00:22:38.970Z,19.32
2019-06-26T00:25:07.820Z,19.33
2019-06-26T00:27:36.559Z,19.40
2019-06-26T00:30:08.862Z,19.55
2019-06-26T00:32:37.428Z,19.59
2019-06-26T00:35:06.569Z,19.53
2019-06-26T00:37:35.245Z,19.54
2019-06-26T00:40:05.205Z,19.48
2019-06-26T00:42:33.887Z,19.45
2019-06-26T00:45:02.541Z,19.39
2019-06-26T00:47:31.182Z,19.47
2019-06-26T00:49:59.828Z,19.45
2019-06-26T00:52:28.490Z,19.38
2019-06-26T00:54:56.990Z,19.29
2019-06-26T00:57:25.565Z,19.24
2019-06-26T00:59:54.321Z,19.18
2019-06-26T01:02:22.890Z,19.23
2019-06-26T01:04:53.033Z,19.22
2019-06-26T01:07:21.707Z,19.29
2019-06-26T01:09:50.343Z,19.36
2019-06-26T01:12:18.913Z,19.34
2019-06-26T01:14:47.474Z,19.31
2019-06-26T01:17:16.043Z,19.33
2019-06-26T01:19:44.804Z,19.37
2019-06-26T01:22:13.412Z,19.38
2019-06-26T01:24:41.990Z,19.45
2019-06-26T01:27:10.559Z,19.41
2019-06-26T01:29:39.239Z,19.37
2019-06-26T01:32:07.979Z,19.35
2019-06-26T01:34:36.482Z,19.33
2019-06-26T01:37:05.167Z,19.31
2019-06-26T01:39:33.813Z,19.27
2019-06-26T01:42:02.596Z,19.35
2019-06-26T01:44:31.277Z,19.36
2019-06-26T01:46:59.851Z,19.37
2019-06-26T01:49:28.495Z,19.42
2019-06-26T01:51:57.123Z,19.41
2019-06-26T01:54:25.610Z,19.39
2019-06-26T01:56:54.186Z,19.36
2019-06-26T01:59:22.865Z,19.47
2019-06-26T02:01:51.498Z,19.43
2019-06-26T02:04:20.223Z,19.51
2019-06-26T02:06:49.112Z,19.48
2019-06-26T02:09:17.617Z,19.54
2019-06-26T02:11:46.195Z,19.60
2019-06-26T02:14:30.031Z,19.55
2019-06-26T02:16:45.300Z,19.63
2019-06-26T02:19:15.543Z,19.61
2019-06-26T02:21:44.154Z,19.53
2019-06-26T02:24:12.799Z,19.51
2019-06-26T02:26:41.440Z,19.44
2019-06-26T02:29:10.211Z,19.36
2019-06-26T02:31:38.932Z,19.33
2019-06-26T02:34:07.610Z,19.29
2019-06-26T02:36:36.208Z,19.37
2019-06-26T02:39:06.657Z,19.50
2019-06-26T02:41:35.889Z,19.42
2019-06-26T02:44:04.977Z,19.41
2019-06-26T02:46:33.719Z,19.32
2019-06-26T02:49:02.366Z,19.37
2019-06-26T02:51:30.986Z,19.39
2019-06-26T02:53:59.582Z,19.32
2019-06-26T02:56:28.151Z,19.40
2019-06-26T02:58:56.863Z,19.43
2019-06-26T03:01:25.663Z,19.51
2019-06-26T03:03:54.241Z,19.53
2019-06-26T03:06:22.916Z,19.63
2019-06-26T03:08:51.556Z,19.70
2019-06-26T03:11:20.895Z,19.63
2019-06-26T03:13:49.620Z,19.68
2019-06-26T03:16:18.244Z,19.79
2019-06-26T03:18:46.905Z,19.97
2019-06-26T03:21:15.517Z,20.16
2019-06-26T03:23:44.106Z,20.33
2019-06-26T03:26:12.939Z,20.79
2019-06-26T03:28:41.530Z,21.25
2019-06-26T03:31:10.168Z,21.64
2019-06-26T03:33:38.807Z,22.07
2019-06-26T03:36:07.451Z,22.32
2019-06-26T03:38:35.942Z,22.33
2019-06-26T03:41:04.617Z,22.27
2019-06-26T03:43:35.411Z,23.10
2019-06-26T03:46:03.603Z,24.01
2019-06-26T03:48:32.135Z,24.54
2019-06-26T03:51:00.779Z,25.89
2019-06-26T03:53:29.495Z,25.89
2019-06-26T03:55:58.267Z,26.51
2019-06-26T03:58:26.764Z,27.42
2019-06-26T04:00:55.404Z,28.08
2019-06-26T04:03:24.005Z,28.45
2019-06-26T04:05:52.576Z,28.93
2019-06-26T04:08:21.213Z,28.90
2019-06-26T04:10:49.979Z,28.37
2019-06-26T04:13:18.637Z,27.23
2019-06-26T04:15:50.702Z,26.49
2019-06-26T04:18:17.598Z,25.91
2019-06-26T04:20:46.162Z,25.24
2019-06-26T04:23:14.679Z,25.00
2019-06-26T04:25:43.379Z,24.58
2019-06-26T04:28:12.852Z,24.25
2019-06-26T04:30:41.355Z,24.18
2019-06-26T04:33:09.963Z,24.38
2019-06-26T04:35:38.621Z,25.38
2019-06-26T04:38:07.251Z,26.37
2019-06-26T04:40:35.878Z,26.64
2019-06-26T04:43:04.502Z,26.75
2019-06-26T04:45:33.071Z,27.61
2019-06-26T04:48:01.663Z,28.08
2019-06-26T04:50:30.326Z,28.99
2019-06-26T04:52:58.942Z,29.25
2019-06-26T04:55:27.656Z,27.81
2019-06-26T04:57:56.148Z,27.15
2019-06-26T05:00:25.184Z,25.92
2019-06-26T05:02:53.859Z,24.22
2019-06-26T05:05:38.210Z,23.83
2019-06-26T05:07:53.806Z,23.11
2019-06-26T05:10:22.556Z,22.75
2019-06-26T05:12:51.230Z,22.33
2019-06-26T05:15:20.054Z,22.06
2019-06-26T05:17:48.679Z,22.00
2019-06-26T05:20:17.512Z,22.05
2019-06-26T05:22:46.117Z,22.16
2019-06-26T05:25:15.432Z,22.20
2019-06-26T05:27:44.074Z,22.56
2019-06-26T05:30:13.141Z,22.69
2019-06-26T05:32:41.820Z,22.60
2019-06-26T05:35:10.724Z,22.59
2019-06-26T05:37:39.433Z,22.71
2019-06-26T05:40:10.728Z,22.82
2019-06-26T05:42:39.355Z,22.97
2019-06-26T05:45:08.823Z,22.64
2019-06-26T05:47:37.469Z,22.49
2019-06-26T05:50:08.064Z,22.53
2019-06-26T05:52:36.734Z,22.26
2019-06-26T05:55:06.759Z,22.41
2019-06-26T05:57:35.386Z,22.41
2019-06-26T06:00:09.144Z,22.51
2019-06-26T06:02:37.774Z,22.51
2019-06-26T06:05:08.118Z,22.85
2019-06-26T06:07:36.727Z,22.89
2019-06-26T06:10:09.422Z,22.89
2019-06-26T06:12:38.055Z,22.97
2019-06-26T06:15:08.035Z,23.07
2019-06-26T06:17:37.082Z,23.37
2019-06-26T06:20:07.521Z,23.59
2019-06-26T06:22:36.220Z,23.63
2019-06-26T06:25:06.442Z,23.82
2019-06-26T06:27:34.934Z,23.69
2019-06-26T06:30:05.417Z,24.72
2019-06-26T06:32:34.048Z,25.58
2019-06-26T06:35:02.611Z,25.55
2019-06-26T06:37:31.132Z,25.78
2019-06-26T06:39:59.769Z,25.19
2019-06-26T06:42:28.395Z,24.90
2019-06-26T06:44:56.993Z,24.87
2019-06-26T06:47:25.554Z,24.92
2019-06-26T06:49:54.201Z,24.84
2019-06-26T06:52:22.883Z,24.82
2019-06-26T06:54:51.443Z,24.77
2019-06-26T06:57:20.097Z,24.98
2019-06-26T06:59:48.751Z,25.94
2019-06-26T07:02:17.393Z,26.10
2019-06-26T07:04:45.875Z,26.10
2019-06-26T07:07:14.539Z,25.75
2019-06-26T07:09:43.167Z,25.65
2019-06-26T07:12:11.796Z,25.72
2019-06-26T07:14:40.336Z,25.96
2019-06-26T07:17:19.900Z,25.70
2019-06-26T07:19:39.318Z,25.34
2019-06-26T07:22:07.906Z,26.00
2019-06-26T07:24:36.547Z,26.07
2019-06-26T07:27:05.168Z,25.36
2019-06-26T07:29:33.760Z,25.33
2019-06-26T07:32:02.367Z,24.87
2019-06-26T07:34:30.985Z,24.67
2019-06-26T07:36:59.652Z,24.72
2019-06-26T07:39:28.287Z,24.57
2019-06-26T07:41:56.830Z,25.07
2019-06-26T07:44:25.465Z,25.66
2019-06-26T07:46:54.090Z,26.14
2019-06-26T07:49:22.681Z,25.94
2019-06-26T07:51:51.247Z,25.97
2019-06-26T07:54:19.876Z,25.73
2019-06-26T07:56:48.589Z,25.53
2019-06-26T07:59:17.155Z,25.70
2019-06-26T08:01:45.809Z,25.59
2019-06-26T08:04:14.339Z,25.53
2019-06-26T08:06:42.955Z,25.29
2019-06-26T08:09:11.584Z,25.39
2019-06-26T08:11:40.255Z,25.78
2019-06-26T08:14:08.813Z,25.84
2019-06-26T08:16:37.302Z,25.37
2019-06-26T08:19:05.976Z,25.15
2019-06-26T08:21:34.599Z,25.24
2019-06-26T08:24:03.101Z,25.23
2019-06-26T08:26:31.610Z,25.08
2019-06-26T08:29:00.243Z,24.63
2019-06-26T08:31:28.967Z,25.72
2019-06-26T08:33:57.492Z,26.02
2019-06-26T08:36:25.994Z,25.81
2019-06-26T08:38:54.617Z,26.12
2019-06-26T08:41:23.234Z,26.12
2019-06-26T08:43:51.863Z,26.34
2019-06-26T08:46:20.481Z,26.85
2019-06-26T08:48:51.900Z,26.32
2019-06-26T08:51:19.547Z,25.54
2019-06-26T08:53:48.131Z,25.92
2019-06-26T08:56:16.802Z,25.70
2019-06-26T08:58:45.285Z,25.69
2019-06-26T09:01:13.803Z,25.33
2019-06-26T09:03:42.551Z,25.54
2019-06-26T09:06:11.178Z,25.15
2019-06-26T09:08:39.670Z,25.25
2019-06-26T09:11:08.190Z,24.94
2019-06-26T09:13:36.824Z,24.86
2019-06-26T09:16:05.447Z,24.71
2019-06-26T09:18:35.755Z,24.74
2019-06-26T09:21:04.380Z,24.89
2019-06-26T09:23:32.891Z,24.73
2019-06-26T09:26:01.505Z,24.58
2019-06-26T09:28:30.122Z,24.91
2019-06-26T09:30:58.750Z,25.15
2019-06-26T09:33:27.351Z,25.43
2019-06-26T09:35:56.090Z,25.52
2019-06-26T09:38:24.725Z,25.38
2019-06-26T09:40:53.414Z,25.69
2019-06-26T09:43:21.916Z,26.22
2019-06-26T09:45:50.402Z,26.18
2019-06-26T09:48:19.072Z,25.84
2019-06-26T09:50:47.689Z,25.67
2019-06-26T09:53:16.277Z,25.60
2019-06-26T09:55:44.926Z,26.01
2019-06-26T09:58:13.823Z,25.93
2019-06-26T10:00:42.502Z,25.79
2019-06-26T10:03:11.231Z,25.38
2019-06-26T10:05:39.860Z,25.13
2019-06-26T10:08:08.354Z,25.04
2019-06-26T10:10:36.952Z,25.37
2019-06-26T10:13:05.571Z,25.06
2019-06-26T10:15:34.185Z,25.27
2019-06-26T10:18:02.786Z,25.33
2019-06-26T10:20:31.267Z,25.11
2019-06-26T10:22:59.919Z,25.02
2019-06-26T10:25:28.567Z,25.17
2019-06-26T10:27:57.123Z,25.36
2019-06-26T10:30:25.748Z,25.33
2019-06-26T10:32:54.413Z,25.26
2019-06-26T10:35:23.041Z,25.61
2019-06-26T10:37:51.613Z,25.69
2019-06-26T10:40:20.699Z,25.71
2019-06-26T10:42:49.245Z,25.62
2019-06-26T10:45:18.274Z,25.41
2019-06-26T10:47:46.944Z,25.65
2019-06-26T10:50:16.254Z,25.67
2019-06-26T10:52:44.948Z,25.83
2019-06-26T10:55:13.705Z,25.78
2019-06-26T10:57:42.344Z,25.65
2019-06-26T11:00:11.809Z,25.89
2019-06-26T11:02:40.485Z,26.19
2019-06-26T11:05:09.807Z,26.27
2019-06-26T11:07:38.440Z,25.96
2019-06-26T11:10:08.717Z,25.85
2019-06-26T11:12:37.357Z,25.84
2019-06-26T11:15:07.719Z,25.73
2019-06-26T11:17:36.448Z,25.85
2019-06-26T11:20:07.723Z,26.21
2019-06-26T11:22:36.492Z,26.31
2019-06-26T11:25:07.250Z,26.05
2019-06-26T11:27:35.867Z,26.12
2019-06-26T11:30:09.615Z,25.80
2019-06-26T11:32:38.291Z,25.94
2019-06-26T11:35:07.929Z,25.87
2019-06-26T11:37:36.749Z,25.56
2019-06-26T11:40:09.332Z,25.58
2019-06-26T11:42:37.953Z,25.37
2019-06-26T11:45:09.842Z,25.16
2019-06-26T11:47:38.599Z,25.22
2019-06-26T11:50:11.650Z,25.39
2019-06-26T11:52:40.698Z,25.52
2019-06-26T11:55:09.766Z,25.58
2019-06-26T11:57:38.389Z,25.75
2019-06-26T12:00:09.878Z,25.88
2019-06-26T12:02:38.464Z,26.10
2019-06-26T12:05:07.934Z,26.12
2019-06-26T12:07:36.641Z,26.18
2019-06-26T12:10:09.777Z,26.11
2019-06-26T12:12:38.638Z,25.94
2019-06-26T12:15:07.766Z,26.07
2019-06-26T12:17:36.443Z,26.29
2019-06-26T12:20:17.837Z,26.14
2019-06-26T12:22:37.559Z,25.99
2019-06-26T12:25:07.077Z,26.24
2019-06-26T12:27:35.688Z,26.53
2019-06-26T12:30:06.115Z,26.31
2019-06-26T12:32:41.878Z,26.41
2019-06-26T12:35:06.436Z,26.55
2019-06-26T12:37:38.091Z,26.53
2019-06-26T12:40:07.373Z,26.67
2019-06-26T12:42:35.937Z,26.41
2019-06-26T12:45:07.097Z,26.21
2019-06-26T12:47:35.757Z,25.95
2019-06-26T12:50:06.781Z,26.02
2019-06-26T12:52:35.343Z,26.10
2019-06-26T12:55:07.875Z,26.16
2019-06-26T12:57:36.506Z,26.10
2019-06-26T13:00:09.666Z,26.12
2019-06-26T13:02:38.146Z,26.18
2019-06-26T13:05:07.612Z,25.97
2019-06-26T13:07:36.279Z,26.02
2019-06-26T13:10:07.745Z,25.89
2019-06-26T13:12:36.836Z,25.90
2019-06-26T13:15:07.633Z,26.04
2019-06-26T13:17:36.289Z,26.00
2019-06-26T13:20:10.162Z,26.09
2019-06-26T13:22:38.367Z,25.99
2019-06-26T13:25:10.169Z,25.95
2019-06-26T13:27:38.799Z,26.06
2019-06-26T13:30:08.373Z,26.19
2019-06-26T13:32:36.997Z,26.24
2019-06-26T13:35:08.706Z,26.52
2019-06-26T13:37:37.424Z,26.35
2019-06-26T13:40:07.566Z,26.25
2019-06-26T13:42:36.195Z,26.30
2019-06-26T13:45:07.199Z,26.39
2019-06-26T13:47:35.780Z,26.69
2019-06-26T13:50:08.824Z,26.58
2019-06-26T13:52:37.556Z,26.49
2019-06-26T13:55:06.885Z,26.38
2019-06-26T13:57:35.554Z,26.36
2019-06-26T14:00:06.586Z,26.22
2019-06-26T14:02:35.145Z,26.29
2019-06-26T14:05:03.864Z,26.25
2019-06-26T14:07:32.463Z,26.21
2019-06-26T14:10:01.180Z,26.20
2019-06-26T14:12:29.694Z,26.17
2019-06-26T14:14:58.431Z,26.24
2019-06-26T14:17:27.056Z,26.22
2019-06-26T14:19:55.741Z,26.30
2019-06-26T14:22:24.380Z,26.36
2019-06-26T14:24:54.259Z,26.33
2019-06-26T14:27:23.102Z,26.34
2019-06-26T14:29:51.735Z,26.17
2019-06-26T14:32:20.350Z,26.29
2019-06-26T14:34:48.885Z,26.23
2019-06-26T14:37:17.541Z,26.25
2019-06-26T14:39:46.090Z,26.14
2019-06-26T14:42:14.745Z,26.03
2019-06-26T14:44:43.301Z,26.04
2019-06-26T14:47:11.854Z,26.16
2019-06-26T14:49:40.502Z,26.14
2019-06-26T14:52:09.146Z,26.22
2019-06-26T14:54:37.778Z,26.13
2019-06-26T14:57:06.369Z,26.14
2019-06-26T14:59:34.895Z,26.11
2019-06-26T15:02:03.529Z,26.09
2019-06-26T15:04:32.198Z,26.15
2019-06-26T15:07:00.703Z,26.15
2019-06-26T15:09:29.265Z,26.10
2019-06-26T15:11:57.901Z,25.93
2019-06-26T15:14:26.527Z,25.90
2019-06-26T15:16:55.055Z,26.06
2019-06-26T15:19:23.802Z,26.22
2019-06-26T15:21:58.350Z,26.24
2019-06-26T15:24:22.615Z,26.32
2019-06-26T15:26:51.298Z,26.23
2019-06-26T15:29:19.925Z,26.18
2019-06-26T15:31:48.455Z,25.87
2019-06-26T15:34:16.942Z,25.97
2019-06-26T15:36:45.632Z,26.02
2019-06-26T15:39:14.347Z,26.06
2019-06-26T15:41:42.843Z,26.03
2019-06-26T15:44:11.483Z,25.93
2019-06-26T15:46:40.155Z,25.74
2019-06-26T15:49:08.877Z,25.74
2019-06-26T15:51:37.457Z,25.85
2019-06-26T15:54:06.133Z,25.87
2019-06-26T15:56:34.773Z,25.74
2019-06-26T15:59:03.265Z,25.75
2019-06-26T16:01:31.932Z,25.95
2019-06-26T16:04:00.575Z,25.85
2019-06-26T16:06:29.125Z,25.85
2019-06-26T16:08:57.653Z,25.84
2019-06-26T16:11:26.382Z,25.77
2019-06-26T16:13:55.012Z,25.80
2019-06-26T16:16:24.408Z,25.77
2019-06-26T16:18:54.547Z,25.86
2019-06-26T16:21:23.179Z,25.96
2019-06-26T16:23:51.898Z,25.88
2019-06-26T16:26:20.387Z,25.76
2019-06-26T16:28:48.948Z,25.78
2019-06-26T16:31:17.706Z,25.85
2019-06-26T16:33:46.330Z,25.79
2019-06-26T16:36:15.057Z,25.85
2019-06-26T16:38:43.718Z,25.77
2019-06-26T16:41:12.348Z,25.79
2019-06-26T16:43:40.846Z,25.66
2019-06-26T16:46:09.534Z,25.72
2019-06-26T16:48:38.190Z,25.55
2019-06-26T16:51:06.814Z,25.53
2019-06-26T16:53:35.782Z,25.38
2019-06-26T16:56:04.460Z,25.37
2019-06-26T16:58:33.108Z,25.43
2019-06-26T17:01:01.701Z,25.36
2019-06-26T17:03:30.193Z,25.43
2019-06-26T17:05:58.834Z,25.29
2019-06-26T17:08:27.545Z,25.23
2019-06-26T17:10:56.071Z,25.27
2019-06-26T17:13:24.630Z,25.31
2019-06-26T17:15:53.291Z,25.36
2019-06-26T17:18:21.915Z,25.37
2019-06-26T17:20:50.562Z,25.32
2019-06-26T17:23:19.188Z,25.33
2019-06-26T17:25:47.868Z,25.34
2019-06-26T17:28:16.515Z,25.26
2019-06-26T17:30:45.337Z,25.36
2019-06-26T17:33:13.842Z,25.31
2019-06-26T17:35:42.574Z,25.15
2019-06-26T17:38:11.243Z,25.20
2019-06-26T17:40:39.793Z,25.27
2019-06-26T17:43:12.783Z,25.11
2019-06-26T17:45:38.660Z,25.00
2019-06-26T17:48:07.292Z,24.99
2019-06-26T17:50:35.787Z,24.90
2019-06-26T17:53:17.502Z,24.79
2019-06-26T17:55:34.749Z,24.68
2019-06-26T17:58:03.275Z,24.57
2019-06-26T18:00:36.399Z,24.66
2019-06-26T18:03:05.527Z,24.62
2019-06-26T18:05:34.090Z,24.59
2019-06-26T18:08:02.626Z,24.43
2019-06-26T18:10:31.248Z,24.51
2019-06-26T18:12:59.882Z,24.43
2019-06-26T18:15:28.405Z,24.43
2019-06-26T18:17:57.038Z,24.42
2019-06-26T18:20:25.688Z,24.44
2019-06-26T18:23:06.386Z,24.35
2019-06-26T18:25:26.821Z,24.33
2019-06-26T18:27:55.316Z,24.32
2019-06-26T18:30:24.184Z,24.32
2019-06-26T18:32:52.826Z,24.19
2019-06-26T18:35:21.452Z,24.23
2019-06-26T18:37:50.116Z,24.14
2019-06-26T18:40:18.787Z,24.16
2019-06-26T18:42:47.277Z,24.05
2019-06-26T18:45:15.966Z,24.06
2019-06-26T18:47:44.603Z,24.06
2019-06-26T18:50:13.931Z,24.12
2019-06-26T18:52:42.508Z,24.07
2019-06-26T18:55:11.155Z,24.03
2019-06-26T18:57:39.845Z,23.90
2019-06-26T19:00:09.228Z,23.77
2019-06-26T19:02:37.789Z,23.65
2019-06-26T19:05:08.138Z,23.63
2019-06-26T19:07:36.807Z,23.60
2019-06-26T19:10:07.961Z,23.53
2019-06-26T19:12:37.896Z,23.57
2019-06-26T19:15:07.162Z,23.57
2019-06-26T19:17:35.911Z,23.53
2019-06-26T19:20:06.779Z,23.51
2019-06-26T19:22:35.437Z,23.44
2019-06-26T19:25:05.473Z,23.46
2019-06-26T19:27:33.970Z,23.46
2019-06-26T19:30:03.080Z,23.46
2019-06-26T19:32:31.725Z,23.48
2019-06-26T19:35:08.181Z,23.45
2019-06-26T19:37:30.547Z,23.48
2019-06-26T19:39:59.168Z,23.50
2019-06-26T19:42:27.904Z,23.52
2019-06-26T19:44:56.449Z,23.47
2019-06-26T19:47:24.941Z,23.47
2019-06-26T19:49:53.580Z,23.35
2019-06-26T19:52:22.237Z,23.28
2019-06-26T19:54:50.736Z,23.27
2019-06-26T19:57:19.372Z,23.21
2019-06-26T19:59:48.054Z,23.19
2019-06-26T20:02:16.688Z,23.20
2019-06-26T20:04:48.145Z,23.17
2019-06-26T20:07:15.667Z,23.08
2019-06-26T20:09:44.285Z,23.08
2019-06-26T20:12:12.948Z,23.07
2019-06-26T20:14:41.521Z,23.04
2019-06-26T20:17:10.078Z,23.06
2019-06-26T20:19:38.716Z,22.97
2019-06-26T20:22:07.968Z,22.98
2019-06-26T20:24:43.977Z,22.89
2019-06-26T20:27:06.724Z,22.86
2019-06-26T20:29:35.456Z,22.86
2019-06-26T20:32:04.021Z,22.86
2019-06-26T20:34:32.513Z,22.82
2019-06-26T20:37:01.200Z,22.77
2019-06-26T20:39:29.766Z,22.71
2019-06-26T20:41:58.345Z,22.76
2019-06-26T20:44:27.003Z,22.81
2019-06-26T20:46:55.644Z,22.74
2019-06-26T20:49:24.185Z,22.67
2019-06-26T20:51:53.422Z,22.58
2019-06-26T20:54:22.061Z,22.53
2019-06-26T20:56:50.701Z,22.37
2019-06-26T20:59:19.321Z,22.36
2019-06-26T21:01:47.833Z,22.28
2019-06-26T21:04:16.457Z,22.20
2019-06-26T21:06:45.145Z,22.17
2019-06-26T21:09:13.646Z,22.08
2019-06-26T21:11:42.201Z,22.05
2019-06-26T21:14:10.888Z,22.04
2019-06-26T21:16:39.550Z,21.97
2019-06-26T21:19:08.701Z,21.95
2019-06-26T21:21:37.580Z,21.95
2019-06-26T21:24:06.242Z,21.92
2019-06-26T21:26:34.819Z,21.89
2019-06-26T21:29:03.516Z,21.83
2019-06-26T21:31:32.139Z,21.80
2019-06-26T21:34:01.318Z,21.70
2019-06-26T21:36:29.914Z,21.51
2019-06-26T21:38:58.585Z,21.43
2019-06-26T21:41:27.218Z,21.43
2019-06-26T21:43:55.788Z,21.47
2019-06-26T21:46:24.285Z,21.45
2019-06-26T21:48:52.959Z,21.44
2019-06-26T21:51:21.604Z,21.44
2019-06-26T21:53:50.111Z,21.52
2019-06-26T21:56:18.934Z,21.51
2019-06-26T21:58:47.437Z,21.34
2019-06-26T22:01:16.012Z,21.25
2019-06-26T22:03:44.759Z,21.17
2019-06-26T22:06:13.497Z,21.08
2019-06-26T22:08:41.998Z,21.03
2019-06-26T22:11:10.528Z,21.03
2019-06-26T22:13:39.168Z,20.94
2019-06-26T22:16:07.918Z,20.90
2019-06-26T22:18:36.461Z,20.90
2019-06-26T22:21:05.191Z,20.86
2019-06-26T22:23:33.844Z,20.83
2019-06-26T22:26:02.576Z,20.78
2019-06-26T22:28:31.147Z,20.86
2019-06-26T22:30:59.797Z,20.92
2019-06-26T22:33:28.475Z,20.84
2019-06-26T22:35:57.116Z,20.88
2019-06-26T22:38:25.761Z,20.85
2019-06-26T22:40:54.430Z,20.74
2019-06-26T22:43:23.083Z,20.70
2019-06-26T22:45:51.731Z,20.53
2019-06-26T22:48:20.338Z,20.58
2019-06-26T22:50:49.001Z,20.52
2019-06-26T22:53:17.695Z,20.56
2019-06-26T22:55:46.457Z,20.62
2019-06-26T22:58:15.096Z,20.57
2019-06-26T23:00:46.850Z,20.50
2019-06-26T23:03:14.142Z,20.48
2019-06-26T23:05:42.793Z,20.44
2019-06-26T23:08:11.377Z,20.35
2019-06-26T23:10:39.897Z,20.26
2019-06-26T23:13:09.687Z,20.25
2019-06-26T23:15:38.474Z,20.30
2019-06-26T23:18:07.114Z,20.16
2019-06-26T23:20:35.761Z,20.06
2019-06-26T23:23:04.341Z,20.05
2019-06-26T23:25:32.859Z,19.99
2019-06-26T23:28:01.540Z,19.95
2019-06-26T23:30:30.198Z,20.01
2019-06-26T23:32:58.704Z,19.99
2019-06-26T23:35:27.328Z,19.98
2019-06-26T23:37:55.981Z,19.98
2019-06-26T23:40:24.632Z,19.96
2019-06-26T23:42:53.231Z,19.95
2019-06-26T23:45:21.807Z,19.89
2019-06-26T23:47:50.449Z,19.92
2019-06-26T23:50:19.141Z,19.97
2019-06-26T23:52:47.643Z,19.97
2019-06-26T23:55:16.286Z,19.91
2019-06-26T23:57:58.498Z,19.85
